sensor_id;sensor_type;location;lat;lon;timestamp;pressure;altitude;pressure_sealevel;temperature;humidity
46015;BME280;36844;51.898;-0.874;2022-08-01T00:01:15;100777.41;;;22.95;
46015;BME280;36844;51.898;-0.874;2022-08-01T00:04:01;100778.59;;;22.94;
46015;BME280;36844;51.898;-0.874;2022-08-01T00:06:47;100776.31;;;22.92;
46015;BME280;36844;51.898;-0.874;2022-08-01T00:09:32;100778.69;;;22.90;
46015;BME280;36844;51.898;-0.874;2022-08-01T00:12:18;100781.78;;;22.89;
46015;BME280;36844;51.898;-0.874;2022-08-01T00:15:04;100775.66;;;22.88;
46015;BME280;36844;51.898;-0.874;2022-08-01T00:17:50;100777.59;;;22.88;
46015;BME280;36844;51.898;-0.874;2022-08-01T00:20:36;100778.75;;;22.87;
46015;BME280;36844;51.898;-0.874;2022-08-01T00:23:21;100779.19;;;22.85;
46015;BME280;36844;51.898;-0.874;2022-08-01T00:26:07;100786.59;;;22.85;
46015;BME280;36844;51.898;-0.874;2022-08-01T00:28:52;100779.63;;;22.84;
46015;BME280;36844;51.898;-0.874;2022-08-01T00:31:38;100788.94;;;22.83;
46015;BME280;36844;51.898;-0.874;2022-08-01T00:34:24;100786.22;;;22.83;
46015;BME280;36844;51.898;-0.874;2022-08-01T00:37:09;100788.63;;;22.81;
46015;BME280;36844;51.898;-0.874;2022-08-01T00:39:55;100780.47;;;22.81;
46015;BME280;36844;51.898;-0.874;2022-08-01T00:42:40;100784.34;;;22.80;
46015;BME280;36844;51.898;-0.874;2022-08-01T00:45:26;100788.28;;;22.79;
46015;BME280;36844;51.898;-0.874;2022-08-01T00:48:12;100788.28;;;22.79;
46015;BME280;36844;51.898;-0.874;2022-08-01T00:50:57;100796.06;;;22.77;
46015;BME280;36844;51.898;-0.874;2022-08-01T00:53:43;100797.25;;;22.76;
46015;BME280;36844;51.898;-0.874;2022-08-01T00:56:29;100796.06;;;22.77;
46015;BME280;36844;51.898;-0.874;2022-08-01T00:59:14;100785.63;;;22.75;
46015;BME280;36844;51.898;-0.874;2022-08-01T01:02:02;100786.78;;;22.74;
46015;BME280;36844;51.898;-0.874;2022-08-01T01:04:47;100782.59;;;22.73;
46015;BME280;36844;51.898;-0.874;2022-08-01T01:10:48;100783.75;;;22.72;
46015;BME280;36844;51.898;-0.874;2022-08-01T01:13:46;100781.44;;;22.71;
46015;BME280;36844;51.898;-0.874;2022-08-01T01:16:34;100781.44;;;22.71;
46015;BME280;36844;51.898;-0.874;2022-08-01T01:19:23;100790.03;;;22.69;
46015;BME280;36844;51.898;-0.874;2022-08-01T01:30:51;100785.44;;;22.66;
46015;BME280;36844;51.898;-0.874;2022-08-01T01:33:39;100787.38;;;22.66;
46015;BME280;36844;51.898;-0.874;2022-08-01T01:36:25;100788.16;;;22.66;
46015;BME280;36844;51.898;-0.874;2022-08-01T01:39:11;100786.63;;;22.65;
46015;BME280;36844;51.898;-0.874;2022-08-01T01:41:59;100783.13;;;22.65;
46015;BME280;36844;51.898;-0.874;2022-08-01T01:44:45;100776.19;;;22.64;
46015;BME280;36844;51.898;-0.874;2022-08-01T01:47:32;100778.91;;;22.64;
46015;BME280;36844;51.898;-0.874;2022-08-01T01:50:19;100769.22;;;22.63;
46015;BME280;36844;51.898;-0.874;2022-08-01T01:53:05;100778.56;;;22.62;
46015;BME280;36844;51.898;-0.874;2022-08-01T01:55:52;100774.31;;;22.61;
46015;BME280;36844;51.898;-0.874;2022-08-01T01:58:38;100780.91;;;22.60;
46015;BME280;36844;51.898;-0.874;2022-08-01T02:01:25;100779.75;;;22.61;
46015;BME280;36844;51.898;-0.874;2022-08-01T02:04:12;100775.50;;;22.60;
46015;BME280;36844;51.898;-0.874;2022-08-01T02:06:58;100776.66;;;22.59;
46015;BME280;36844;51.898;-0.874;2022-08-01T02:09:44;100772.47;;;22.58;
46015;BME280;36844;51.898;-0.874;2022-08-01T02:12:32;100767.03;;;22.58;
46015;BME280;36844;51.898;-0.874;2022-08-01T02:15:19;100768.19;;;22.57;
46015;BME280;36844;51.898;-0.874;2022-08-01T02:18:05;100759.28;;;22.56;
46015;BME280;36844;51.898;-0.874;2022-08-01T02:20:52;100763.94;;;22.56;
46015;BME280;36844;51.898;-0.874;2022-08-01T02:23:38;100763.94;;;22.56;
46015;BME280;36844;51.898;-0.874;2022-08-01T02:26:25;100766.66;;;22.56;
46015;BME280;36844;51.898;-0.874;2022-08-01T02:29:12;100761.63;;;22.54;
46015;BME280;36844;51.898;-0.874;2022-08-01T02:31:58;100758.19;;;22.54;
46015;BME280;36844;51.898;-0.874;2022-08-01T02:34:46;100761.63;;;22.54;
46015;BME280;36844;51.898;-0.874;2022-08-01T02:37:33;100751.19;;;22.53;
46015;BME280;36844;51.898;-0.874;2022-08-01T02:40:18;100754.69;;;22.53;
46015;BME280;36844;51.898;-0.874;2022-08-01T02:43:04;100758.59;;;22.52;
46015;BME280;36844;51.898;-0.874;2022-08-01T02:45:51;100757.84;;;22.52;
46015;BME280;36844;51.898;-0.874;2022-08-01T02:48:38;100770.63;;;22.51;
46015;BME280;36844;51.898;-0.874;2022-08-01T02:51:24;100767.16;;;22.51;
46015;BME280;36844;51.898;-0.874;2022-08-01T02:54:10;100771.06;;;22.50;
46015;BME280;36844;51.898;-0.874;2022-08-01T02:56:56;100770.31;;;22.49;
46015;BME280;36844;51.898;-0.874;2022-08-01T02:59:43;100763.34;;;22.48;
46015;BME280;36844;51.898;-0.874;2022-08-01T03:02:29;100774.19;;;22.48;
46015;BME280;36844;51.898;-0.874;2022-08-01T03:05:15;100771.47;;;22.48;
46015;BME280;36844;51.898;-0.874;2022-08-01T03:08:02;100769.94;;;22.47;
46015;BME280;36844;51.898;-0.874;2022-08-01T03:10:49;100766.44;;;22.47;
46015;BME280;36844;51.898;-0.874;2022-08-01T03:13:35;100763.00;;;22.46;
46015;BME280;36844;51.898;-0.874;2022-08-01T03:16:22;100767.66;;;22.46;
46015;BME280;36844;51.898;-0.874;2022-08-01T03:19:09;100764.19;;;22.45;
46015;BME280;36844;51.898;-0.874;2022-08-01T03:21:56;100760.69;;;22.45;
46015;BME280;36844;51.898;-0.874;2022-08-01T03:24:44;100769.63;;;22.45;
46015;BME280;36844;51.898;-0.874;2022-08-01T03:27:31;100768.84;;;22.45;
46015;BME280;36844;51.898;-0.874;2022-08-01T03:30:16;100769.22;;;22.43;
46015;BME280;36844;51.898;-0.874;2022-08-01T03:33:02;100771.94;;;22.43;
46015;BME280;36844;51.898;-0.874;2022-08-01T03:35:49;100770.47;;;22.42;
46015;BME280;36844;51.898;-0.874;2022-08-01T03:38:37;100772.41;;;22.42;
46015;BME280;36844;51.898;-0.874;2022-08-01T03:41:25;100775.13;;;22.42;
46015;BME280;36844;51.898;-0.874;2022-08-01T03:44:15;100774.75;;;22.40;
46015;BME280;36844;51.898;-0.874;2022-08-01T03:47:02;100775.50;;;22.40;
46015;BME280;36844;51.898;-0.874;2022-08-01T03:49:49;100770.84;;;22.41;
46015;BME280;36844;51.898;-0.874;2022-08-01T03:52:35;100769.34;;;22.40;
46015;BME280;36844;51.898;-0.874;2022-08-01T03:55:23;100759.66;;;22.39;
46015;BME280;36844;51.898;-0.874;2022-08-01T03:58:09;100762.03;;;22.37;
46015;BME280;36844;51.898;-0.874;2022-08-01T04:00:55;100762.03;;;22.37;
46015;BME280;36844;51.898;-0.874;2022-08-01T04:03:42;100762.78;;;22.37;
46015;BME280;36844;51.898;-0.874;2022-08-01T04:06:28;100774.06;;;22.36;
46015;BME280;36844;51.898;-0.874;2022-08-01T04:09:14;100774.06;;;22.36;
46015;BME280;36844;51.898;-0.874;2022-08-01T04:12:00;100769.81;;;22.35;
46015;BME280;36844;51.898;-0.874;2022-08-01T04:14:45;100769.81;;;22.35;
46015;BME280;36844;51.898;-0.874;2022-08-01T04:17:31;100764.41;;;22.35;
46015;BME280;36844;51.898;-0.874;2022-08-01T04:20:17;100762.88;;;22.34;
46015;BME280;36844;51.898;-0.874;2022-08-01T04:23:03;100767.53;;;22.33;
46015;BME280;36844;51.898;-0.874;2022-08-01T04:25:48;100766.75;;;22.33;
46015;BME280;36844;51.898;-0.874;2022-08-01T04:28:36;100766.75;;;22.33;
46015;BME280;36844;51.898;-0.874;2022-08-01T04:31:22;100766.00;;;22.32;
46015;BME280;36844;51.898;-0.874;2022-08-01T04:34:11;100765.22;;;22.32;
46015;BME280;36844;51.898;-0.874;2022-08-01T04:36:59;100763.72;;;22.31;
46015;BME280;36844;51.898;-0.874;2022-08-01T04:39:45;100765.66;;;22.30;
46015;BME280;36844;51.898;-0.874;2022-08-01T04:42:32;100767.59;;;22.30;
46015;BME280;36844;51.898;-0.874;2022-08-01T04:45:18;100773.03;;;22.30;
46015;BME280;36844;51.898;-0.874;2022-08-01T04:48:07;100775.75;;;22.30;
46015;BME280;36844;51.898;-0.874;2022-08-01T04:50:53;100776.91;;;22.29;
46015;BME280;36844;51.898;-0.874;2022-08-01T04:53:40;100773.44;;;22.28;
46015;BME280;36844;51.898;-0.874;2022-08-01T04:56:26;100776.16;;;22.28;
46015;BME280;36844;51.898;-0.874;2022-08-01T04:59:12;100784.75;;;22.27;
46015;BME280;36844;51.898;-0.874;2022-08-01T05:02:17;100794.03;;;22.26;
46015;BME280;36844;51.898;-0.874;2022-08-01T05:05:06;100798.69;;;22.25;
46015;BME280;36844;51.898;-0.874;2022-08-01T05:07:51;100792.53;;;22.25;
46015;BME280;36844;51.898;-0.874;2022-08-01T05:10:37;100800.66;;;22.25;
46015;BME280;36844;51.898;-0.874;2022-08-01T05:13:22;100797.19;;;22.24;
46015;BME280;36844;51.898;-0.874;2022-08-01T05:16:08;100796.41;;;22.24;
46015;BME280;36844;51.898;-0.874;2022-08-01T05:18:54;100784.81;;;22.23;
46015;BME280;36844;51.898;-0.874;2022-08-01T05:21:39;100792.94;;;22.23;
46015;BME280;36844;51.898;-0.874;2022-08-01T05:24:25;100792.19;;;22.23;
46015;BME280;36844;51.898;-0.874;2022-08-01T05:27:10;100784.03;;;22.23;
46015;BME280;36844;51.898;-0.874;2022-08-01T05:29:56;100785.22;;;22.22;
46015;BME280;36844;51.898;-0.874;2022-08-01T05:32:41;100788.69;;;22.22;
46015;BME280;36844;51.898;-0.874;2022-08-01T05:35:27;100786.41;;;22.21;
46015;BME280;36844;51.898;-0.874;2022-08-01T05:38:13;100786.41;;;22.21;
46015;BME280;36844;51.898;-0.874;2022-08-01T05:40:58;100786.41;;;22.21;
46015;BME280;36844;51.898;-0.874;2022-08-01T05:43:44;100787.59;;;22.20;
46015;BME280;36844;51.898;-0.874;2022-08-01T05:46:29;100789.09;;;22.21;
46015;BME280;36844;51.898;-0.874;2022-08-01T05:49:16;100784.88;;;22.20;
46015;BME280;36844;51.898;-0.874;2022-08-01T05:52:01;100787.59;;;22.20;
46015;BME280;36844;51.898;-0.874;2022-08-01T05:54:47;100781.38;;;22.19;
46015;BME280;36844;51.898;-0.874;2022-08-01T05:57:32;100777.94;;;22.19;
46015;BME280;36844;51.898;-0.874;2022-08-01T06:00:18;100779.88;;;22.18;
46015;BME280;36844;51.898;-0.874;2022-08-01T06:03:04;100790.72;;;22.18;
46015;BME280;36844;51.898;-0.874;2022-08-01T06:05:51;100792.66;;;22.18;
46015;BME280;36844;51.898;-0.874;2022-08-01T06:08:36;100791.88;;;22.17;
46015;BME280;36844;51.898;-0.874;2022-08-01T06:11:22;100796.53;;;22.17;
46015;BME280;36844;51.898;-0.874;2022-08-01T06:14:08;100791.88;;;22.17;
46015;BME280;36844;51.898;-0.874;2022-08-01T06:16:53;100795.78;;;22.16;
46015;BME280;36844;51.898;-0.874;2022-08-01T06:19:39;100803.91;;;22.16;
46015;BME280;36844;51.898;-0.874;2022-08-01T06:22:24;100799.72;;;22.15;
46015;BME280;36844;51.898;-0.874;2022-08-01T06:25:10;100801.66;;;22.15;
46015;BME280;36844;51.898;-0.874;2022-08-01T06:27:56;100807.41;;;22.17;
46015;BME280;36844;51.898;-0.874;2022-08-01T06:30:41;100809.78;;;22.15;
46015;BME280;36844;51.898;-0.874;2022-08-01T06:33:27;100804.34;;;22.15;
46015;BME280;36844;51.898;-0.874;2022-08-01T06:36:13;100815.22;;;22.15;
46015;BME280;36844;51.898;-0.874;2022-08-01T06:38:58;100822.59;;;22.14;
46015;BME280;36844;51.898;-0.874;2022-08-01T06:41:44;100815.59;;;22.13;
46015;BME280;36844;51.898;-0.874;2022-08-01T06:44:31;100816.81;;;22.12;
46015;BME280;36844;51.898;-0.874;2022-08-01T06:47:17;100828.56;;;22.05;
46015;BME280;36844;51.898;-0.874;2022-08-01T06:50:03;100834.50;;;21.97;
46015;BME280;36844;51.898;-0.874;2022-08-01T06:52:49;100832.34;;;21.88;
46015;BME280;36844;51.898;-0.874;2022-08-01T06:55:34;100834.44;;;21.81;
46015;BME280;36844;51.898;-0.874;2022-08-01T06:58:20;100831.78;;;21.77;
46015;BME280;36844;51.898;-0.874;2022-08-01T07:01:05;100823.25;;;21.75;
46015;BME280;36844;51.898;-0.874;2022-08-01T07:03:52;100834.25;;;21.68;
46015;BME280;36844;51.898;-0.874;2022-08-01T07:06:37;100837.09;;;21.61;
46015;BME280;36844;51.898;-0.874;2022-08-01T07:09:23;100836.44;;;21.54;
46015;BME280;36844;51.898;-0.874;2022-08-01T07:12:09;100844.25;;;21.48;
46015;BME280;36844;51.898;-0.874;2022-08-01T07:14:54;100832.78;;;21.41;
46015;BME280;36844;51.898;-0.874;2022-08-01T07:17:40;100835.91;;;21.36;
46015;BME280;36844;51.898;-0.874;2022-08-01T07:20:26;100831.75;;;21.31;
46015;BME280;36844;51.898;-0.874;2022-08-01T07:23:12;100835.25;;;21.28;
46015;BME280;36844;51.898;-0.874;2022-08-01T07:25:58;100834.50;;;21.28;
46015;BME280;36844;51.898;-0.874;2022-08-01T07:28:44;100831.06;;;21.27;
46015;BME280;36844;51.898;-0.874;2022-08-01T07:31:30;100836.03;;;21.29;
46015;BME280;36844;51.898;-0.874;2022-08-01T07:34:15;100831.38;;;21.29;
46015;BME280;36844;51.898;-0.874;2022-08-01T07:37:01;100843.78;;;21.30;
46015;BME280;36844;51.898;-0.874;2022-08-01T07:39:46;100844.53;;;21.31;
46015;BME280;36844;51.898;-0.874;2022-08-01T07:42:32;100850.72;;;21.31;
46015;BME280;36844;51.898;-0.874;2022-08-01T07:45:17;100848.38;;;21.33;
46015;BME280;36844;51.898;-0.874;2022-08-01T07:48:04;100850.66;;;21.35;
46015;BME280;36844;51.898;-0.874;2022-08-01T07:50:50;100850.66;;;21.35;
46015;BME280;36844;51.898;-0.874;2022-08-01T07:53:36;100851.44;;;21.35;
46015;BME280;36844;51.898;-0.874;2022-08-01T07:56:21;100844.81;;;21.36;
46015;BME280;36844;51.898;-0.874;2022-08-01T07:59:09;100843.66;;;21.37;
46015;BME280;36844;51.898;-0.874;2022-08-01T08:01:54;100843.25;;;21.39;
46015;BME280;36844;51.898;-0.874;2022-08-01T08:04:40;100852.91;;;21.40;
46015;BME280;36844;51.898;-0.874;2022-08-01T08:07:26;100857.16;;;21.41;
46015;BME280;36844;51.898;-0.874;2022-08-01T08:10:11;100857.16;;;21.41;
46015;BME280;36844;51.898;-0.874;2022-08-01T08:12:57;100862.16;;;21.42;
46015;BME280;36844;51.898;-0.874;2022-08-01T08:15:43;100860.97;;;21.43;
46015;BME280;36844;51.898;-0.874;2022-08-01T08:18:28;100858.28;;;21.43;
46015;BME280;36844;51.898;-0.874;2022-08-01T08:21:15;100860.97;;;21.43;
46015;BME280;36844;51.898;-0.874;2022-08-01T08:24:01;100860.56;;;21.45;
46015;BME280;36844;51.898;-0.874;2022-08-01T08:27:04;100864.06;;;21.45;
46015;BME280;36844;51.898;-0.874;2022-08-01T08:29:50;100859.41;;;21.46;
46015;BME280;36844;51.898;-0.874;2022-08-01T08:32:35;100852.06;;;21.46;
46015;BME280;36844;51.898;-0.874;2022-08-01T08:35:21;100855.09;;;21.48;
46015;BME280;36844;51.898;-0.874;2022-08-01T08:38:07;100842.69;;;21.47;
46015;BME280;36844;51.898;-0.874;2022-08-01T08:40:53;100845.41;;;21.47;
46015;BME280;36844;51.898;-0.874;2022-08-01T08:43:38;100851.22;;;21.49;
46015;BME280;36844;51.898;-0.874;2022-08-01T08:46:25;100850.03;;;21.50;
46015;BME280;36844;51.898;-0.874;2022-08-01T08:49:12;100841.91;;;21.50;
46015;BME280;36844;51.898;-0.874;2022-08-01T08:52:00;100840.38;;;21.49;
46015;BME280;36844;51.898;-0.874;2022-08-01T08:54:47;100843.47;;;21.48;
46015;BME280;36844;51.898;-0.874;2022-08-01T08:57:32;100851.66;;;21.44;
46015;BME280;36844;51.898;-0.874;2022-08-01T09:00:18;100843.63;;;21.41;
46015;BME280;36844;51.898;-0.874;2022-08-01T09:03:04;100847.91;;;21.38;
46015;BME280;36844;51.898;-0.874;2022-08-01T09:05:49;100843.72;;;21.34;
46015;BME280;36844;51.898;-0.874;2022-08-01T09:08:35;100849.97;;;21.31;
46015;BME280;36844;51.898;-0.874;2022-08-01T09:11:20;100846.09;;;21.28;
46015;BME280;36844;51.898;-0.874;2022-08-01T09:14:10;100838.78;;;21.25;
46015;BME280;36844;51.898;-0.874;2022-08-01T09:19:52;100851.28;;;21.19;
46015;BME280;36844;51.898;-0.874;2022-08-01T09:22:37;100843.94;;;21.16;
46015;BME280;36844;51.898;-0.874;2022-08-01T09:25:23;100845.53;;;21.14;
46015;BME280;36844;51.898;-0.874;2022-08-01T09:28:09;100848.66;;;21.12;
46015;BME280;36844;51.898;-0.874;2022-08-01T09:30:57;100840.19;;;21.10;
46015;BME280;36844;51.898;-0.874;2022-08-01T09:33:50;100841.34;;;21.09;
46015;BME280;36844;51.898;-0.874;2022-08-01T09:39:37;100850.25;;;21.10;
46015;BME280;36844;51.898;-0.874;2022-08-01T09:42:25;100850.63;;;21.12;
46015;BME280;36844;51.898;-0.874;2022-08-01T09:45:30;100849.41;;;21.13;
46015;BME280;36844;51.898;-0.874;2022-08-01T09:48:16;100847.84;;;21.15;
46015;BME280;36844;51.898;-0.874;2022-08-01T09:51:02;100842.78;;;21.17;
46015;BME280;36844;51.898;-0.874;2022-08-01T09:53:48;100836.22;;;21.18;
46015;BME280;36844;51.898;-0.874;2022-08-01T09:56:38;100848.94;;;21.21;
46015;BME280;36844;51.898;-0.874;2022-08-01T09:59:33;100854.72;;;21.23;
46015;BME280;36844;51.898;-0.874;2022-08-01T10:02:36;100841.50;;;21.25;
46015;BME280;36844;51.898;-0.874;2022-08-01T10:05:32;100841.13;;;21.27;
46015;BME280;36844;51.898;-0.874;2022-08-01T10:08:19;100847.63;;;21.29;
46015;BME280;36844;51.898;-0.874;2022-08-01T10:11:09;100844.53;;;21.31;
46015;BME280;36844;51.898;-0.874;2022-08-01T10:13:56;100854.56;;;21.34;
46015;BME280;36844;51.898;-0.874;2022-08-01T10:16:42;100850.25;;;21.36;
46015;BME280;36844;51.898;-0.874;2022-08-01T10:19:29;100856.81;;;21.39;
46015;BME280;36844;51.898;-0.874;2022-08-01T10:22:14;100843.63;;;21.41;
46015;BME280;36844;51.898;-0.874;2022-08-01T10:25:03;100845.91;;;21.42;
46015;BME280;36844;51.898;-0.874;2022-08-01T10:27:49;100845.09;;;21.45;
46015;BME280;36844;51.898;-0.874;2022-08-01T10:30:37;100837.28;;;21.47;
46015;BME280;36844;51.898;-0.874;2022-08-01T10:33:23;100840.38;;;21.49;
46015;BME280;36844;51.898;-0.874;2022-08-01T10:36:09;100837.22;;;21.51;
46015;BME280;36844;51.898;-0.874;2022-08-01T10:38:55;100839.13;;;21.54;
46015;BME280;36844;51.898;-0.874;2022-08-01T10:41:41;100839.50;;;21.56;
46015;BME280;36844;51.898;-0.874;2022-08-01T10:44:27;100839.84;;;21.58;
46015;BME280;36844;51.898;-0.874;2022-08-01T10:47:14;100831.72;;;21.58;
46015;BME280;36844;51.898;-0.874;2022-08-01T10:50:11;100829.34;;;21.60;
46015;BME280;36844;51.898;-0.874;2022-08-01T10:53:15;100828.97;;;21.61;
46015;BME280;36844;51.898;-0.874;2022-08-01T10:56:02;100827.75;;;21.62;
46015;BME280;36844;51.898;-0.874;2022-08-01T10:58:48;100823.53;;;21.61;
46015;BME280;36844;51.898;-0.874;2022-08-01T11:01:34;100836.25;;;21.64;
46015;BME280;36844;51.898;-0.874;2022-08-01T11:04:19;100828.44;;;21.66;
46015;BME280;36844;51.898;-0.874;2022-08-01T11:07:06;100839.25;;;21.70;
46015;BME280;36844;51.898;-0.874;2022-08-01T11:10:06;100830.72;;;21.71;
46015;BME280;36844;51.898;-0.874;2022-08-01T11:12:54;100831.81;;;21.74;
46015;BME280;36844;51.898;-0.874;2022-08-01T11:15:40;100825.97;;;21.75;
46015;BME280;36844;51.898;-0.874;2022-08-01T11:21:11;100815.53;;;21.77;
46015;BME280;36844;51.898;-0.874;2022-08-01T11:23:58;100812.38;;;21.79;
46015;BME280;36844;51.898;-0.874;2022-08-01T11:27:14;100811.97;;;21.80;
46015;BME280;36844;51.898;-0.874;2022-08-01T11:32:54;100801.84;;;21.84;
46015;BME280;36844;51.898;-0.874;2022-08-01T11:38:48;100807.16;;;21.88;
46015;BME280;36844;51.898;-0.874;2022-08-01T11:41:34;100800.91;;;21.91;
46015;BME280;36844;51.898;-0.874;2022-08-01T11:44:21;100804.75;;;21.93;
46015;BME280;36844;51.898;-0.874;2022-08-01T11:47:12;100802.41;;;21.95;
46015;BME280;36844;51.898;-0.874;2022-08-01T11:49:57;100791.88;;;21.97;
46015;BME280;36844;51.898;-0.874;2022-08-01T11:52:44;100796.47;;;22.00;
46015;BME280;36844;51.898;-0.874;2022-08-01T11:55:31;100794.13;;;22.02;
46015;BME280;36844;51.898;-0.874;2022-08-01T11:58:20;100794.13;;;22.02;
46015;BME280;36844;51.898;-0.874;2022-08-01T12:01:06;100786.66;;;22.06;
46015;BME280;36844;51.898;-0.874;2022-08-01T12:03:57;100787.03;;;22.08;
46015;BME280;36844;51.898;-0.874;2022-08-01T12:06:43;100781.94;;;22.11;
46015;BME280;36844;51.898;-0.874;2022-08-01T12:09:29;100786.53;;;22.14;
46015;BME280;36844;51.898;-0.874;2022-08-01T12:12:15;100786.53;;;22.14;
46015;BME280;36844;51.898;-0.874;2022-08-01T12:15:04;100774.06;;;22.16;
46015;BME280;36844;51.898;-0.874;2022-08-01T12:17:51;100774.06;;;22.16;
46015;BME280;36844;51.898;-0.874;2022-08-01T12:20:41;100768.59;;;22.20;
46015;BME280;36844;51.898;-0.874;2022-08-01T12:23:28;100766.22;;;22.22;
46015;BME280;36844;51.898;-0.874;2022-08-01T12:26:14;100776.25;;;22.25;
46015;BME280;36844;51.898;-0.874;2022-08-01T12:28:59;100763.41;;;22.25;
46015;BME280;36844;51.898;-0.874;2022-08-01T12:31:45;100765.28;;;22.28;
46015;BME280;36844;51.898;-0.874;2022-08-01T12:34:30;100758.69;;;22.29;
46015;BME280;36844;51.898;-0.874;2022-08-01T12:37:19;100763.72;;;22.31;
46015;BME280;36844;51.898;-0.874;2022-08-01T12:40:16;100750.47;;;22.33;
46015;BME280;36844;51.898;-0.874;2022-08-01T12:43:06;100757.47;;;22.34;
46015;BME280;36844;51.898;-0.874;2022-08-01T12:45:52;100738.78;;;22.36;
46015;BME280;36844;51.898;-0.874;2022-08-01T12:48:38;100746.09;;;22.39;
46015;BME280;36844;51.898;-0.874;2022-08-01T12:51:24;100736.75;;;22.40;
46015;BME280;36844;51.898;-0.874;2022-08-01T12:54:09;100734.78;;;22.40;
46015;BME280;36844;51.898;-0.874;2022-08-01T12:56:55;100734.78;;;22.40;
46015;BME280;36844;51.898;-0.874;2022-08-01T12:59:42;100735.47;;;22.44;
46015;BME280;36844;51.898;-0.874;2022-08-01T13:02:31;100735.47;;;22.44;
46015;BME280;36844;51.898;-0.874;2022-08-01T13:05:17;100731.16;;;22.47;
46015;BME280;36844;51.898;-0.874;2022-08-01T13:08:08;100726.88;;;22.49;
46015;BME280;36844;51.898;-0.874;2022-08-01T13:11:04;100731.84;;;22.51;
46015;BME280;36844;51.898;-0.874;2022-08-01T13:13:50;100722.53;;;22.52;
46015;BME280;36844;51.898;-0.874;2022-08-01T13:16:46;100724.06;;;22.53;
46015;BME280;36844;51.898;-0.874;2022-08-01T13:19:44;100715.91;;;22.53;
46015;BME280;36844;51.898;-0.874;2022-08-01T13:22:33;100724.41;;;22.55;
46015;BME280;36844;51.898;-0.874;2022-08-01T13:25:19;100723.97;;;22.56;
46015;BME280;36844;51.898;-0.874;2022-08-01T13:28:15;100720.88;;;22.58;
46015;BME280;36844;51.898;-0.874;2022-08-01T13:31:06;100714.97;;;22.59;
46015;BME280;36844;51.898;-0.874;2022-08-01T13:33:52;100711.41;;;22.62;
46015;BME280;36844;51.898;-0.874;2022-08-01T13:36:38;100708.28;;;22.64;
46015;BME280;36844;51.898;-0.874;2022-08-01T13:39:23;100708.63;;;22.66;
46015;BME280;36844;51.898;-0.874;2022-08-01T13:42:29;100702.00;;;22.67;
46015;BME280;36844;51.898;-0.874;2022-08-01T13:45:14;100708.22;;;22.67;
46015;BME280;36844;51.898;-0.874;2022-08-01T13:48:01;100705.06;;;22.69;
46015;BME280;36844;51.898;-0.874;2022-08-01T13:50:47;100694.97;;;22.69;
46015;BME280;36844;51.898;-0.874;2022-08-01T13:53:33;100694.53;;;22.71;
46015;BME280;36844;51.898;-0.874;2022-08-01T13:56:18;100700.34;;;22.73;
46015;BME280;36844;51.898;-0.874;2022-08-01T13:59:05;100689.78;;;22.75;
46015;BME280;36844;51.898;-0.874;2022-08-01T14:01:51;100691.34;;;22.76;
46015;BME280;36844;51.898;-0.874;2022-08-01T14:04:37;100690.88;;;22.77;
46015;BME280;36844;51.898;-0.874;2022-08-01T14:07:22;100687.75;;;22.79;
46015;BME280;36844;51.898;-0.874;2022-08-01T14:10:08;100690.06;;;22.80;
46015;BME280;36844;51.898;-0.874;2022-08-01T14:12:57;100689.63;;;22.82;
46015;BME280;36844;51.898;-0.874;2022-08-01T14:15:43;100683.00;;;22.83;
46015;BME280;36844;51.898;-0.874;2022-08-01T14:18:28;100681.81;;;22.84;
46015;BME280;36844;51.898;-0.874;2022-08-01T14:21:14;100684.84;;;22.86;
46015;BME280;36844;51.898;-0.874;2022-08-01T14:24:00;100682.91;;;22.86;
46015;BME280;36844;51.898;-0.874;2022-08-01T14:26:45;100680.56;;;22.88;
46015;BME280;36844;51.898;-0.874;2022-08-01T14:29:31;100669.22;;;22.90;
46015;BME280;36844;51.898;-0.874;2022-08-01T14:32:17;100669.22;;;22.90;
46015;BME280;36844;51.898;-0.874;2022-08-01T14:35:04;100672.28;;;22.92;
46015;BME280;36844;51.898;-0.874;2022-08-01T14:37:50;100665.66;;;22.93;
46015;BME280;36844;51.898;-0.874;2022-08-01T14:40:36;100675.34;;;22.94;
46015;BME280;36844;51.898;-0.874;2022-08-01T14:43:21;100669.94;;;22.94;
46015;BME280;36844;51.898;-0.874;2022-08-01T14:46:07;100666.00;;;22.95;
46015;BME280;36844;51.898;-0.874;2022-08-01T14:48:55;100666.34;;;22.97;
46015;BME280;36844;51.898;-0.874;2022-08-01T14:51:40;100666.34;;;22.97;
46015;BME280;36844;51.898;-0.874;2022-08-01T14:54:26;100661.25;;;22.99;
46015;BME280;36844;51.898;-0.874;2022-08-01T14:57:11;100657.38;;;23.00;
46015;BME280;36844;51.898;-0.874;2022-08-01T14:59:57;100653.41;;;23.01;
46015;BME280;36844;51.898;-0.874;2022-08-01T15:02:42;100641.38;;;23.02;
46015;BME280;36844;51.898;-0.874;2022-08-01T15:05:28;100655.72;;;23.02;
46015;BME280;36844;51.898;-0.874;2022-08-01T15:08:15;100646.41;;;23.03;
46015;BME280;36844;51.898;-0.874;2022-08-01T15:11:01;100647.16;;;23.04;
46015;BME280;36844;51.898;-0.874;2022-08-01T15:13:46;100645.19;;;23.04;
46015;BME280;36844;51.898;-0.874;2022-08-01T15:16:52;100639.34;;;23.06;
46015;BME280;36844;51.898;-0.874;2022-08-01T15:19:38;100639.34;;;23.06;
46015;BME280;36844;51.898;-0.874;2022-08-01T15:22:23;100636.94;;;23.08;
46015;BME280;36844;51.898;-0.874;2022-08-01T15:25:09;100635.00;;;23.08;
46015;BME280;36844;51.898;-0.874;2022-08-01T15:27:55;100641.19;;;23.09;
46015;BME280;36844;51.898;-0.874;2022-08-01T15:30:41;100646.19;;;23.10;
46015;BME280;36844;51.898;-0.874;2022-08-01T15:33:26;100637.63;;;23.12;
46015;BME280;36844;51.898;-0.874;2022-08-01T15:36:12;100627.50;;;23.12;
46015;BME280;36844;51.898;-0.874;2022-08-01T15:38:57;100637.97;;;23.14;
46015;BME280;36844;51.898;-0.874;2022-08-01T15:41:43;100623.19;;;23.15;
46015;BME280;36844;51.898;-0.874;2022-08-01T15:44:28;100621.22;;;23.15;
46015;BME280;36844;51.898;-0.874;2022-08-01T15:47:14;100612.63;;;23.17;